sensor_id;sensor_type;location;lat;lon;timestamp;pressure;altitude;pressure_sealevel;temperature;humidity
70053;BME280;57398;52.032;4.376;2023-08-17T00:05:41;102094.69;;;16.62;nan
70053;BME280;57398;52.032;4.376;2023-08-17T00:08:32;102101.19;;;16.59;nan
70053;BME280;57398;52.032;4.376;2023-08-17T00:11:24;102109.28;;;16.58;nan
70053;BME280;57398;52.032;4.376;2023-08-17T00:14:13;102116.81;;;16.54;nan
70053;BME280;57398;52.032;4.376;2023-08-17T00:17:01;102108.94;;;16.54;nan
70053;BME280;57398;52.032;4.376;2023-08-17T00:19:51;102107.53;;;16.51;nan
70053;BME280;57398;52.032;4.376;2023-08-17T00:22:39;102117.03;;;16.52;nan
70053;BME280;57398;52.032;4.376;2023-08-17T00:25:27;102119.97;;;16.44;nan
70053;BME280;57398;52.032;4.376;2023-08-17T00:31:03;102106.06;;;16.44;nan
70053;BME280;57398;52.032;4.376;2023-08-17T00:33:51;102100.50;;;16.40;nan
70053;BME280;57398;52.032;4.376;2023-08-17T00:36:41;102110.03;;;16.34;nan
70053;BME280;57398;52.032;4.376;2023-08-17T00:39:29;102097.38;;;16.31;nan
70053;BME280;57398;52.032;4.376;2023-08-17T00:42:17;102111.75;;;16.29;nan
70053;BME280;57398;52.032;4.376;2023-08-17T00:45:06;102125.88;;;16.28;nan
70053;BME280;57398;52.032;4.376;2023-08-17T00:47:56;102156.75;;;16.26;nan
70053;BME280;57398;52.032;4.376;2023-08-17T00:50:47;102130.53;;;16.26;nan
70053;BME280;57398;52.032;4.376;2023-08-17T00:53:38;102129.97;;;16.24;nan
70053;BME280;57398;52.032;4.376;2023-08-17T00:56:27;102112.66;;;16.23;nan
70053;BME280;57398;52.032;4.376;2023-08-17T00:59:15;102169.63;;;16.16;nan
70053;BME280;57398;52.032;4.376;2023-08-17T01:02:10;102131.75;;;16.11;nan
70053;BME280;57398;52.032;4.376;2023-08-17T01:05:03;102144.28;;;16.09;nan
70053;BME280;57398;52.032;4.376;2023-08-17T01:07:54;102148.94;;;16.07;nan
70053;BME280;57398;52.032;4.376;2023-08-17T01:10:57;102131.28;;;16.03;nan
70053;BME280;57398;52.032;4.376;2023-08-17T01:13:58;102132.97;;;15.97;nan
70053;BME280;57398;52.032;4.376;2023-08-17T01:16:55;102120.75;;;15.91;nan
70053;BME280;57398;52.032;4.376;2023-08-17T01:19:49;102125.19;;;15.90;nan
70053;BME280;57398;52.032;4.376;2023-08-17T01:22:41;102127.38;;;15.94;nan
70053;BME280;57398;52.032;4.376;2023-08-17T01:25:32;102126.00;;;15.91;nan
70053;BME280;57398;52.032;4.376;2023-08-17T01:28:24;102138.38;;;15.84;nan
70053;BME280;57398;52.032;4.376;2023-08-17T01:31:17;102119.25;;;15.83;nan
70053;BME280;57398;52.032;4.376;2023-08-17T01:34:14;102125.28;;;15.84;nan
70053;BME280;57398;52.032;4.376;2023-08-17T01:37:07;102121.63;;;15.85;nan
70053;BME280;57398;52.032;4.376;2023-08-17T01:39:57;102120.50;;;15.81;nan
70053;BME280;57398;52.032;4.376;2023-08-17T01:42:49;102122.88;;;15.82;nan
70053;BME280;57398;52.032;4.376;2023-08-17T01:45:39;102120.69;;;15.79;nan
70053;BME280;57398;52.032;4.376;2023-08-17T01:48:28;102133.59;;;15.81;nan
70053;BME280;57398;52.032;4.376;2023-08-17T01:51:18;102120.34;;;15.76;nan
70053;BME280;57398;52.032;4.376;2023-08-17T01:54:09;102120.19;;;15.70;nan
70053;BME280;57398;52.032;4.376;2023-08-17T01:56:58;102128.06;;;15.70;nan
70053;BME280;57398;52.032;4.376;2023-08-17T01:59:47;102101.72;;;15.65;nan
70053;BME280;57398;52.032;4.376;2023-08-17T02:02:36;102105.91;;;15.66;nan
70053;BME280;57398;52.032;4.376;2023-08-17T02:05:24;102100.34;;;15.63;nan
70053;BME280;57398;52.032;4.376;2023-08-17T02:08:18;102101.13;;;15.63;nan
70053;BME280;57398;52.032;4.376;2023-08-17T02:11:06;102097.34;;;15.59;nan
70053;BME280;57398;52.032;4.376;2023-08-17T02:13:56;102095.19;;;15.56;nan
70053;BME280;57398;52.032;4.376;2023-08-17T02:16:46;102062.78;;;15.50;nan
70053;BME280;57398;52.032;4.376;2023-08-17T02:19:35;102089.44;;;15.47;nan
70053;BME280;57398;52.032;4.376;2023-08-17T02:22:24;102052.19;;;15.45;nan
70053;BME280;57398;52.032;4.376;2023-08-17T02:25:13;102075.75;;;15.45;nan
70053;BME280;57398;52.032;4.376;2023-08-17T02:28:02;102104.22;;;15.42;nan
70053;BME280;57398;52.032;4.376;2023-08-17T02:30:54;102074.59;;;15.41;nan
70053;BME280;57398;52.032;4.376;2023-08-17T02:33:47;102071.41;;;15.39;nan
70053;BME280;57398;52.032;4.376;2023-08-17T02:36:36;102068.63;;;15.34;nan
70053;BME280;57398;52.032;4.376;2023-08-17T02:39:25;102059.00;;;15.35;nan
70053;BME280;57398;52.032;4.376;2023-08-17T02:45:02;102051.22;;;15.28;nan
70053;BME280;57398;52.032;4.376;2023-08-17T02:47:51;102044.94;;;15.29;nan
70053;BME280;57398;52.032;4.376;2023-08-17T02:50:41;102042.19;;;15.24;nan
70053;BME280;57398;52.032;4.376;2023-08-17T02:53:31;102041.81;;;15.20;nan
70053;BME280;57398;52.032;4.376;2023-08-17T02:56:20;102038.63;;;15.18;nan
70053;BME280;57398;52.032;4.376;2023-08-17T02:59:08;102017.47;;;15.20;nan
70053;BME280;57398;52.032;4.376;2023-08-17T03:01:57;102008.53;;;15.09;nan
70053;BME280;57398;52.032;4.376;2023-08-17T03:04:46;102001.13;;;15.06;nan
70053;BME280;57398;52.032;4.376;2023-08-17T03:07:36;101976.53;;;15.07;nan
70053;BME280;57398;52.032;4.376;2023-08-17T03:10:24;101972.34;;;15.06;nan
70053;BME280;57398;52.032;4.376;2023-08-17T03:13:15;101966.19;;;15.00;nan
70053;BME280;57398;52.032;4.376;2023-08-17T03:16:04;101978.22;;;15.01;nan
70053;BME280;57398;52.032;4.376;2023-08-17T03:18:52;101982.88;;;14.99;nan
70053;BME280;57398;52.032;4.376;2023-08-17T03:21:41;101989.41;;;15.08;nan
70053;BME280;57398;52.032;4.376;2023-08-17T03:24:31;101978.81;;;15.03;nan
70053;BME280;57398;52.032;4.376;2023-08-17T03:27:20;101964.94;;;15.03;nan
70053;BME280;57398;52.032;4.376;2023-08-17T03:30:08;102028.66;;;15.08;nan
70053;BME280;57398;52.032;4.376;2023-08-17T03:32:56;101942.53;;;15.07;nan
70053;BME280;57398;52.032;4.376;2023-08-17T03:35:45;101937.22;;;15.14;nan
70053;BME280;57398;52.032;4.376;2023-08-17T03:38:34;101934.16;;;15.17;nan
70053;BME280;57398;52.032;4.376;2023-08-17T03:41:24;101939.97;;;15.19;nan
70053;BME280;57398;52.032;4.376;2023-08-17T03:44:12;101941.09;;;15.23;nan
70053;BME280;57398;52.032;4.376;2023-08-17T03:47:02;101930.56;;;15.29;nan
70053;BME280;57398;52.032;4.376;2023-08-17T03:49:54;101947.28;;;15.28;nan
70053;BME280;57398;52.032;4.376;2023-08-17T03:52:43;102042.53;;;15.27;nan
70053;BME280;57398;52.032;4.376;2023-08-17T03:58:20;101987.22;;;15.24;nan
70053;BME280;57398;52.032;4.376;2023-08-17T04:01:09;101957.84;;;15.22;nan
70053;BME280;57398;52.032;4.376;2023-08-17T04:03:58;101974.56;;;15.21;nan
70053;BME280;57398;52.032;4.376;2023-08-17T04:09:34;101987.09;;;15.19;nan
70053;BME280;57398;52.032;4.376;2023-08-17T04:12:23;101990.91;;;15.16;nan
70053;BME280;57398;52.032;4.376;2023-08-17T04:15:13;101996.69;;;15.06;nan
70053;BME280;57398;52.032;4.376;2023-08-17T04:18:02;102015.59;;;15.08;nan
70053;BME280;57398;52.032;4.376;2023-08-17T04:20:50;101980.41;;;15.04;nan
70053;BME280;57398;52.032;4.376;2023-08-17T04:23:41;101990.66;;;15.06;nan
70053;BME280;57398;52.032;4.376;2023-08-17T04:26:31;101989.06;;;15.05;nan
70053;BME280;57398;52.032;4.376;2023-08-17T04:29:20;101975.75;;;15.06;nan
70053;BME280;57398;52.032;4.376;2023-08-17T04:32:14;101975.75;;;15.06;nan
70053;BME280;57398;52.032;4.376;2023-08-17T04:35:02;101937.28;;;15.07;nan
70053;BME280;57398;52.032;4.376;2023-08-17T04:37:50;101951.78;;;15.10;nan
70053;BME280;57398;52.032;4.376;2023-08-17T04:40:39;101952.78;;;15.08;nan
70053;BME280;57398;52.032;4.376;2023-08-17T04:43:28;101958.59;;;15.11;nan
70053;BME280;57398;52.032;4.376;2023-08-17T04:46:17;101945.28;;;15.12;nan
70053;BME280;57398;52.032;4.376;2023-08-17T04:49:06;101956.22;;;15.21;nan
70053;BME280;57398;52.032;4.376;2023-08-17T04:51:55;101936.69;;;15.23;nan
70053;BME280;57398;52.032;4.376;2023-08-17T04:54:43;101959.00;;;15.26;nan
70053;BME280;57398;52.032;4.376;2023-08-17T04:57:31;101956.50;;;15.31;nan
70053;BME280;57398;52.032;4.376;2023-08-17T05:00:19;101955.41;;;15.39;nan
70053;BME280;57398;52.032;4.376;2023-08-17T05:03:14;101965.00;;;15.45;nan
70053;BME280;57398;52.032;4.376;2023-08-17T05:06:19;101974.13;;;15.54;nan
70053;BME280;57398;52.032;4.376;2023-08-17T05:09:07;101972.41;;;15.60;nan
70053;BME280;57398;52.032;4.376;2023-08-17T05:12:00;101981.00;;;15.67;nan
70053;BME280;57398;52.032;4.376;2023-08-17T05:14:49;101994.81;;;15.74;nan
70053;BME280;57398;52.032;4.376;2023-08-17T05:17:38;101998.94;;;15.82;nan
70053;BME280;57398;52.032;4.376;2023-08-17T05:20:27;102013.31;;;15.91;nan
70053;BME280;57398;52.032;4.376;2023-08-17T05:23:27;102046.50;;;15.97;nan
70053;BME280;57398;52.032;4.376;2023-08-17T05:26:15;102060.50;;;16.03;nan
70053;BME280;57398;52.032;4.376;2023-08-17T05:29:05;102065.75;;;16.03;nan
70053;BME280;57398;52.032;4.376;2023-08-17T05:34:41;102096.78;;;16.06;nan
70053;BME280;57398;52.032;4.376;2023-08-17T05:37:31;102076.13;;;16.09;nan
70053;BME280;57398;52.032;4.376;2023-08-17T05:43:09;102077.66;;;16.17;nan
70053;BME280;57398;52.032;4.376;2023-08-17T05:45:57;102085.28;;;16.19;nan
70053;BME280;57398;52.032;4.376;2023-08-17T05:48:46;102089.16;;;16.28;nan
70053;BME280;57398;52.032;4.376;2023-08-17T05:51:34;102108.56;;;16.39;nan
70053;BME280;57398;52.032;4.376;2023-08-17T05:54:22;102099.44;;;16.41;nan
70053;BME280;57398;52.032;4.376;2023-08-17T05:57:12;102093.06;;;16.37;nan
70053;BME280;57398;52.032;4.376;2023-08-17T06:00:01;102115.66;;;16.38;nan
70053;BME280;57398;52.032;4.376;2023-08-17T06:02:49;102104.38;;;16.49;nan
70053;BME280;57398;52.032;4.376;2023-08-17T06:05:39;102117.81;;;16.53;nan
70053;BME280;57398;52.032;4.376;2023-08-17T06:11:15;102096.72;;;16.60;nan
70053;BME280;57398;52.032;4.376;2023-08-17T06:14:05;102100.72;;;16.62;nan
70053;BME280;57398;52.032;4.376;2023-08-17T06:16:53;102096.03;;;16.64;nan
70053;BME280;57398;52.032;4.376;2023-08-17T06:19:42;102083.38;;;16.73;nan
70053;BME280;57398;52.032;4.376;2023-08-17T06:22:32;102077.81;;;16.81;nan
70053;BME280;57398;52.032;4.376;2023-08-17T06:28:08;102068.91;;;16.94;nan
70053;BME280;57398;52.032;4.376;2023-08-17T06:30:58;102074.03;;;17.01;nan
70053;BME280;57398;52.032;4.376;2023-08-17T06:33:46;102066.84;;;17.08;nan
70053;BME280;57398;52.032;4.376;2023-08-17T06:36:38;102062.75;;;17.00;nan
70053;BME280;57398;52.032;4.376;2023-08-17T06:39:26;102067.91;;;16.95;nan
70053;BME280;57398;52.032;4.376;2023-08-17T06:42:14;102068.56;;;16.90;nan
70053;BME280;57398;52.032;4.376;2023-08-17T06:45:03;102065.13;;;16.90;nan
70053;BME280;57398;52.032;4.376;2023-08-17T06:47:53;102065.63;;;16.87;nan
70053;BME280;57398;52.032;4.376;2023-08-17T06:50:41;102056.94;;;16.86;nan
70053;BME280;57398;52.032;4.376;2023-08-17T06:53:30;102048.38;;;16.91;nan
70053;BME280;57398;52.032;4.376;2023-08-17T06:56:18;102053.16;;;16.94;nan
70053;BME280;57398;52.032;4.376;2023-08-17T06:59:06;102055.84;;;17.11;nan
70053;BME280;57398;52.032;4.376;2023-08-17T07:01:55;102063.84;;;17.16;nan
70053;BME280;57398;52.032;4.376;2023-08-17T07:04:45;102050.34;;;17.24;nan
70053;BME280;57398;52.032;4.376;2023-08-17T07:07:34;102052.28;;;17.29;nan
70053;BME280;57398;52.032;4.376;2023-08-17T07:10:22;102062.06;;;17.33;nan
70053;BME280;57398;52.032;4.376;2023-08-17T07:13:11;102091.88;;;17.39;nan
70053;BME280;57398;52.032;4.376;2023-08-17T07:15:59;102095.16;;;17.46;nan
70053;BME280;57398;52.032;4.376;2023-08-17T07:18:47;102088.50;;;17.55;nan
70053;BME280;57398;52.032;4.376;2023-08-17T07:21:37;102096.06;;;17.52;nan
70053;BME280;57398;52.032;4.376;2023-08-17T07:24:25;102091.66;;;17.69;nan
70053;BME280;57398;52.032;4.376;2023-08-17T07:27:14;102090.88;;;17.69;nan
70053;BME280;57398;52.032;4.376;2023-08-17T07:32:54;102135.47;;;17.92;nan
70053;BME280;57398;52.032;4.376;2023-08-17T07:35:44;102089.03;;;17.98;nan
70053;BME280;57398;52.032;4.376;2023-08-17T07:38:34;102082.81;;;18.04;nan
70053;BME280;57398;52.032;4.376;2023-08-17T07:41:22;102064.81;;;17.96;nan
70053;BME280;57398;52.032;4.376;2023-08-17T07:44:10;102077.84;;;17.91;nan
70053;BME280;57398;52.032;4.376;2023-08-17T07:46:59;102050.47;;;18.04;nan
70053;BME280;57398;52.032;4.376;2023-08-17T07:49:49;102065.84;;;18.12;nan
70053;BME280;57398;52.032;4.376;2023-08-17T07:52:37;102034.00;;;18.08;nan
70053;BME280;57398;52.032;4.376;2023-08-17T07:55:27;102046.41;;;18.13;nan
70053;BME280;57398;52.032;4.376;2023-08-17T08:01:03;102013.75;;;18.26;nan
70053;BME280;57398;52.032;4.376;2023-08-17T08:03:52;102009.59;;;18.13;nan
70053;BME280;57398;52.032;4.376;2023-08-17T08:06:41;102012.22;;;18.13;nan
70053;BME280;57398;52.032;4.376;2023-08-17T08:09:30;101926.66;;;18.44;nan
70053;BME280;57398;52.032;4.376;2023-08-17T08:12:19;101923.28;;;18.27;nan
70053;BME280;57398;52.032;4.376;2023-08-17T08:15:08;101922.72;;;18.25;nan
70053;BME280;57398;52.032;4.376;2023-08-17T08:17:56;101926.53;;;18.34;nan
70053;BME280;57398;52.032;4.376;2023-08-17T08:23:33;101901.75;;;18.30;nan
70053;BME280;57398;52.032;4.376;2023-08-17T08:26:21;101890.50;;;18.56;nan
70053;BME280;57398;52.032;4.376;2023-08-17T08:32:00;101836.34;;;18.60;nan
70053;BME280;57398;52.032;4.376;2023-08-17T08:34:49;101821.84;;;18.85;nan
70053;BME280;57398;52.032;4.376;2023-08-17T08:37:38;101802.59;;;18.79;nan
70053;BME280;57398;52.032;4.376;2023-08-17T08:40:29;101802.53;;;19.01;nan
70053;BME280;57398;52.032;4.376;2023-08-17T08:43:18;101803.00;;;18.98;nan
70053;BME280;57398;52.032;4.376;2023-08-17T08:46:08;101788.72;;;18.89;nan
70053;BME280;57398;52.032;4.376;2023-08-17T08:48:57;101793.28;;;18.99;nan
70053;BME280;57398;52.032;4.376;2023-08-17T08:51:49;101738.53;;;19.43;nan
70053;BME280;57398;52.032;4.376;2023-08-17T08:57:27;101560.75;;;20.48;nan
70053;BME280;57398;52.032;4.376;2023-08-17T09:00:17;101453.69;;;21.31;nan
70053;BME280;57398;52.032;4.376;2023-08-17T09:03:08;101406.38;;;21.69;nan
70053;BME280;57398;52.032;4.376;2023-08-17T09:05:57;101451.56;;;20.94;nan
70053;BME280;57398;52.032;4.376;2023-08-17T09:08:46;101489.03;;;20.21;nan
70053;BME280;57398;52.032;4.376;2023-08-17T09:14:30;101526.75;;;19.85;nan
70053;BME280;57398;52.032;4.376;2023-08-17T09:17:23;101535.16;;;19.52;nan
70053;BME280;57398;52.032;4.376;2023-08-17T09:20:37;101545.34;;;19.22;nan
70053;BME280;57398;52.032;4.376;2023-08-17T09:23:26;101509.59;;;20.24;nan
70053;BME280;57398;52.032;4.376;2023-08-17T09:26:14;101496.66;;;20.17;nan
70053;BME280;57398;52.032;4.376;2023-08-17T09:29:16;101528.34;;;19.86;nan
70053;BME280;57398;52.032;4.376;2023-08-17T09:32:05;101503.56;;;19.98;nan
70053;BME280;57398;52.032;4.376;2023-08-17T09:34:53;101461.31;;;20.23;nan
70053;BME280;57398;52.032;4.376;2023-08-17T09:37:43;101476.63;;;20.21;nan
70053;BME280;57398;52.032;4.376;2023-08-17T09:40:31;101449.44;;;20.16;nan
70053;BME280;57398;52.032;4.376;2023-08-17T09:43:21;101452.66;;;20.02;nan
70053;BME280;57398;52.032;4.376;2023-08-17T09:46:09;101459.53;;;19.98;nan
70053;BME280;57398;52.032;4.376;2023-08-17T09:48:58;101452.66;;;20.02;nan
70053;BME280;57398;52.032;4.376;2023-08-17T09:51:46;101418.25;;;20.43;nan
70053;BME280;57398;52.032;4.376;2023-08-17T09:57:25;101384.88;;;20.73;nan
70053;BME280;57398;52.032;4.376;2023-08-17T10:00:14;101299.91;;;21.83;nan
70053;BME280;57398;52.032;4.376;2023-08-17T10:03:07;101314.66;;;21.06;nan
70053;BME280;57398;52.032;4.376;2023-08-17T10:05:59;101295.03;;;21.47;nan
70053;BME280;57398;52.032;4.376;2023-08-17T10:08:57;101296.09;;;21.46;nan
70053;BME280;57398;52.032;4.376;2023-08-17T10:11:51;101319.53;;;20.89;nan
70053;BME280;57398;52.032;4.376;2023-08-17T10:14:50;101295.59;;;21.44;nan
70053;BME280;57398;52.032;4.376;2023-08-17T10:17:48;101283.34;;;21.77;nan
70053;BME280;57398;52.032;4.376;2023-08-17T10:20:47;101185.34;;;21.87;nan
70053;BME280;57398;52.032;4.376;2023-08-17T10:23:45;101135.09;;;22.25;nan
70053;BME280;57398;52.032;4.376;2023-08-17T10:26:43;101195.13;;;21.20;nan
70053;BME280;57398;52.032;4.376;2023-08-17T10:29:43;101160.22;;;21.90;nan
70053;BME280;57398;52.032;4.376;2023-08-17T10:32:31;101117.56;;;22.29;nan
70053;BME280;57398;52.032;4.376;2023-08-17T10:35:19;101091.63;;;22.45;nan
70053;BME280;57398;52.032;4.376;2023-08-17T10:38:09;101126.25;;;21.78;nan
70053;BME280;57398;52.032;4.376;2023-08-17T10:41:11;101115.72;;;22.11;nan
70053;BME280;57398;52.032;4.376;2023-08-17T10:44:02;101124.53;;;21.68;nan
70053;BME280;57398;52.032;4.376;2023-08-17T10:46:52;101143.22;;;21.53;nan
70053;BME280;57398;52.032;4.376;2023-08-17T10:49:42;101163.50;;;21.15;nan
70053;BME280;57398;52.032;4.376;2023-08-17T10:52:31;101213.00;;;20.75;nan
70053;BME280;57398;52.032;4.376;2023-08-17T10:55:35;101195.31;;;21.28;nan
70053;BME280;57398;52.032;4.376;2023-08-17T10:58:24;101163.75;;;21.37;nan
70053;BME280;57398;52.032;4.376;2023-08-17T11:01:12;101148.97;;;21.36;nan
70053;BME280;57398;52.032;4.376;2023-08-17T11:04:13;101159.91;;;21.05;nan
70053;BME280;57398;52.032;4.376;2023-08-17T11:07:03;101168.59;;;21.30;nan
70053;BME280;57398;52.032;4.376;2023-08-17T11:09:53;101123.13;;;21.33;nan
70053;BME280;57398;52.032;4.376;2023-08-17T11:12:41;101156.25;;;21.01;nan
70053;BME280;57398;52.032;4.376;2023-08-17T11:15:37;101096.81;;;21.66;nan
70053;BME280;57398;52.032;4.376;2023-08-17T11:18:30;101105.03;;;21.21;nan
70053;BME280;57398;52.032;4.376;2023-08-17T11:21:20;101095.34;;;21.36;nan
70053;BME280;57398;52.032;4.376;2023-08-17T11:24:10;101029.16;;;21.65;nan
70053;BME280;57398;52.032;4.376;2023-08-17T11:26:58;101009.56;;;21.99;nan
70053;BME280;57398;52.032;4.376;2023-08-17T11:29:47;101014.16;;;21.41;nan
70053;BME280;57398;52.032;4.376;2023-08-17T11:32:35;101033.31;;;21.52;nan
70053;BME280;57398;52.032;4.376;2023-08-17T11:35:23;101037.25;;;21.87;nan
70053;BME280;57398;52.032;4.376;2023-08-17T11:38:13;101060.94;;;20.98;nan
70053;BME280;57398;52.032;4.376;2023-08-17T11:41:02;101044.72;;;21.66;nan
70053;BME280;57398;52.032;4.376;2023-08-17T11:46:42;101002.50;;;21.94;nan
70053;BME280;57398;52.032;4.376;2023-08-17T11:52:25;100901.69;;;22.51;nan
70053;BME280;57398;52.032;4.376;2023-08-17T11:55:17;100897.78;;;22.48;nan
70053;BME280;57398;52.032;4.376;2023-08-17T11:58:06;100851.19;;;22.84;nan
70053;BME280;57398;52.032;4.376;2023-08-17T12:00:56;100855.88;;;22.64;nan
70053;BME280;57398;52.032;4.376;2023-08-17T12:03:45;100865.63;;;22.55;nan
70053;BME280;57398;52.032;4.376;2023-08-17T12:06:33;100900.44;;;22.07;nan
70053;BME280;57398;52.032;4.376;2023-08-17T12:09:21;100877.50;;;22.02;nan
70053;BME280;57398;52.032;4.376;2023-08-17T12:12:12;100898.84;;;22.06;nan
70053;BME280;57398;52.032;4.376;2023-08-17T12:15:00;100880.66;;;22.18;nan
70053;BME280;57398;52.032;4.376;2023-08-17T12:17:49;100907.97;;;21.86;nan
70053;BME280;57398;52.032;4.376;2023-08-17T12:20:39;100846.13;;;22.51;nan
70053;BME280;57398;52.032;4.376;2023-08-17T12:23:32;100805.41;;;22.83;nan
70053;BME280;57398;52.032;4.376;2023-08-17T12:26:21;100816.38;;;22.68;nan
70053;BME280;57398;52.032;4.376;2023-08-17T12:29:11;100809.16;;;22.82;nan
70053;BME280;57398;52.032;4.376;2023-08-17T12:32:01;100818.41;;;22.34;nan
70053;BME280;57398;52.032;4.376;2023-08-17T12:34:49;100811.16;;;22.26;nan
70053;BME280;57398;52.032;4.376;2023-08-17T12:37:37;100843.03;;;22.07;nan
70053;BME280;57398;52.032;4.376;2023-08-17T12:40:26;100834.28;;;22.34;nan
70053;BME280;57398;52.032;4.376;2023-08-17T12:43:14;100820.69;;;22.64;nan
70053;BME280;57398;52.032;4.376;2023-08-17T12:46:04;100821.47;;;22.00;nan
70053;BME280;57398;52.032;4.376;2023-08-17T12:48:52;100826.03;;;22.50;nan
70053;BME280;57398;52.032;4.376;2023-08-17T12:54:32;100820.16;;;22.39;nan
70053;BME280;57398;52.032;4.376;2023-08-17T12:57:21;100844.00;;;21.98;nan
70053;BME280;57398;52.032;4.376;2023-08-17T13:00:10;100862.50;;;21.70;nan
70053;BME280;57398;52.032;4.376;2023-08-17T13:03:00;100858.59;;;21.67;nan
70053;BME280;57398;52.032;4.376;2023-08-17T13:05:48;100840.66;;;21.92;nan
70053;BME280;57398;52.032;4.376;2023-08-17T13:08:36;100858.75;;;21.57;nan
70053;BME280;57398;52.032;4.376;2023-08-17T13:11:25;100894.88;;;21.29;nan
70053;BME280;57398;52.032;4.376;2023-08-17T13:14:14;100843.69;;;21.71;nan
70053;BME280;57398;52.032;4.376;2023-08-17T13:17:02;100880.88;;;21.47;nan
70053;BME280;57398;52.032;4.376;2023-08-17T13:19:52;100845.25;;;21.59;nan
70053;BME280;57398;52.032;4.376;2023-08-17T13:22:46;100832.72;;;21.92;nan
70053;BME280;57398;52.032;4.376;2023-08-17T13:25:34;100840.88;;;21.82;nan
70053;BME280;57398;52.032;4.376;2023-08-17T13:28:26;100829.13;;;21.60;nan
70053;BME280;57398;52.032;4.376;2023-08-17T13:31:29;100832.81;;;21.45;nan
70053;BME280;57398;52.032;4.376;2023-08-17T13:34:23;100820.50;;;21.68;nan
70053;BME280;57398;52.032;4.376;2023-08-17T13:37:13;100850.47;;;21.31;nan
70053;BME280;57398;52.032;4.376;2023-08-17T13:40:01;100892.34;;;21.05;nan
70053;BME280;57398;52.032;4.376;2023-08-17T13:42:49;100881.75;;;21.43;nan
70053;BME280;57398;52.032;4.376;2023-08-17T13:45:38;100884.31;;;20.96;nan
70053;BME280;57398;52.032;4.376;2023-08-17T13:48:26;100895.72;;;20.91;nan
70053;BME280;57398;52.032;4.376;2023-08-17T13:51:15;100903.97;;;21.04;nan
70053;BME280;57398;52.032;4.376;2023-08-17T13:54:04;100865.78;;;21.15;nan
70053;BME280;57398;52.032;4.376;2023-08-17T13:56:53;100867.44;;;21.11;nan
70053;BME280;57398;52.032;4.376;2023-08-17T13:59:41;100868.31;;;20.87;nan
70053;BME280;57398;52.032;4.376;2023-08-17T14:02:29;100910.75;;;20.72;nan
70053;BME280;57398;52.032;4.376;2023-08-17T14:05:18;100892.66;;;21.03;nan
70053;BME280;57398;52.032;4.376;2023-08-17T14:08:07;100846.00;;;21.12;nan
70053;BME280;57398;52.032;4.376;2023-08-17T14:10:59;100907.25;;;20.77;nan
70053;BME280;57398;52.032;4.376;2023-08-17T14:13:47;100937.09;;;20.53;nan
70053;BME280;57398;52.032;4.376;2023-08-17T14:16:35;100944.19;;;20.58;nan
70053;BME280;57398;52.032;4.376;2023-08-17T14:19:24;100910.34;;;20.84;nan
70053;BME280;57398;52.032;4.376;2023-08-17T14:22:12;100888.00;;;20.95;nan
70053;BME280;57398;52.032;4.376;2023-08-17T14:25:00;100888.34;;;21.07;nan
70053;BME280;57398;52.032;4.376;2023-08-17T14:27:51;100884.84;;;20.93;nan
70053;BME280;57398;52.032;4.376;2023-08-17T14:30:40;100882.78;;;20.90;nan
70053;BME280;57398;52.032;4.376;2023-08-17T14:33:29;100884.28;;;20.77;nan
70053;BME280;57398;52.032;4.376;2023-08-17T14:36:17;100876.75;;;20.89;nan
70053;BME280;57398;52.032;4.376;2023-08-17T14:39:06;100889.38;;;20.74;nan
70053;BME280;57398;52.032;4.376;2023-08-17T14:41:55;100894.72;;;20.68;nan
70053;BME280;57398;52.032;4.376;2023-08-17T14:44:44;100900.53;;;20.84;nan
70053;BME280;57398;52.032;4.376;2023-08-17T14:47:33;100860.47;;;20.82;nan
70053;BME280;57398;52.032;4.376;2023-08-17T14:50:21;100841.59;;;21.08;nan
70053;BME280;57398;52.032;4.376;2023-08-17T14:53:14;100841.56;;;20.94;nan
70053;BME280;57398;52.032;4.376;2023-08-17T14:56:08;100856.66;;;21.07;nan
70053;BME280;57398;52.032;4.376;2023-08-17T15:01:46;100814.91;;;20.90;nan
70053;BME280;57398;52.032;4.376;2023-08-17T15:04:36;100842.06;;;20.96;nan
70053;BME280;57398;52.032;4.376;2023-08-17T15:07:24;100858.28;;;20.46;nan
70053;BME280;57398;52.032;4.376;2023-08-17T15:10:13;100880.94;;;20.47;nan
70053;BME280;57398;52.032;4.376;2023-08-17T15:15:49;100844.91;;;20.62;nan
70053;BME280;57398;52.032;4.376;2023-08-17T15:18:39;100840.75;;;20.56;nan
70053;BME280;57398;52.032;4.376;2023-08-17T15:22:02;100871.91;;;20.54;nan
70053;BME280;57398;52.032;4.376;2023-08-17T15:24:50;100866.53;;;20.40;nan
70053;BME280;57398;52.032;4.376;2023-08-17T15:27:38;100874.69;;;20.43;nan
70053;BME280;57398;52.032;4.376;2023-08-17T15:30:27;100843.81;;;20.44;nan
70053;BME280;57398;52.032;4.376;2023-08-17T15:33:15;100846.44;;;20.44;nan
70053;BME280;57398;52.032;4.376;2023-08-17T15:36:05;100854.28;;;20.30;nan
70053;BME280;57398;52.032;4.376;2023-08-17T15:38:53;100864.25;;;20.33;nan
70053;BME280;57398;52.032;4.376;2023-08-17T15:41:41;100884.38;;;20.05;nan
70053;BME280;57398;52.032;4.376;2023-08-17T15:44:30;100900.03;;;20.20;nan
70053;BME280;57398;52.032;4.376;2023-08-17T15:47:19;100867.81;;;20.23;nan
70053;BME280;57398;52.032;4.376;2023-08-17T15:50:07;100878.34;;;20.23;nan
70053;BME280;57398;52.032;4.376;2023-08-17T15:52:57;100874.63;;;20.24;nan
70053;BME280;57398;52.032;4.376;2023-08-17T15:55:46;100900.72;;;20.02;nan
70053;BME280;57398;52.032;4.376;2023-08-17T15:58:34;100872.31;;;20.23;nan
70053;BME280;57398;52.032;4.376;2023-08-17T16:01:22;100848.56;;;20.23;nan
70053;BME280;57398;52.032;4.376;2023-08-17T16:06:59;100881.66;;;20.10;nan
70053;BME280;57398;52.032;4.376;2023-08-17T16:09:49;100843.91;;;20.15;nan
70053;BME280;57398;52.032;4.376;2023-08-17T16:12:37;100870.00;;;20.16;nan
70053;BME280;57398;52.032;4.376;2023-08-17T16:15:28;100883.19;;;20.16;nan